sensor_id;sensor_type;location;lat;lon;timestamp;P1;durP1;ratioP1;P2;durP2;ratioP2
22417;SDS011;11376;50.932;4.442;2023-03-31T00:00:11;12.37;;;2.80;;
22417;SDS011;11376;50.932;4.442;2023-03-31T00:02:40;16.03;;;3.10;;
22417;SDS011;11376;50.932;4.442;2023-03-31T00:05:08;15.53;;;2.27;;
22417;SDS011;11376;50.932;4.442;2023-03-31T00:07:34;19.37;;;2.53;;
22417;SDS011;11376;50.932;4.442;2023-03-31T00:10:02;17.87;;;2.57;;
22417;SDS011;11376;50.932;4.442;2023-03-31T00:12:29;18.90;;;2.70;;
22417;SDS011;11376;50.932;4.442;2023-03-31T00:14:55;13.17;;;1.77;;
22417;SDS011;11376;50.932;4.442;2023-03-31T00:17:20;15.63;;;2.57;;
22417;SDS011;11376;50.932;4.442;2023-03-31T00:19:46;17.87;;;2.60;;
22417;SDS011;11376;50.932;4.442;2023-03-31T00:22:14;10.50;;;1.60;;
22417;SDS011;11376;50.932;4.442;2023-03-31T00:24:42;9.47;;;1.57;;
22417;SDS011;11376;50.932;4.442;2023-03-31T00:27:08;14.37;;;1.90;;
22417;SDS011;11376;50.932;4.442;2023-03-31T00:29:35;10.40;;;1.80;;
22417;SDS011;11376;50.932;4.442;2023-03-31T00:32:01;12.73;;;1.60;;
22417;SDS011;11376;50.932;4.442;2023-03-31T00:34:27;18.67;;;2.67;;
22417;SDS011;11376;50.932;4.442;2023-03-31T00:36:52;13.13;;;1.70;;
22417;SDS011;11376;50.932;4.442;2023-03-31T00:39:20;12.83;;;2.50;;
22417;SDS011;11376;50.932;4.442;2023-03-31T00:41:47;9.13;;;1.67;;
22417;SDS011;11376;50.932;4.442;2023-03-31T00:44:14;11.30;;;1.73;;
22417;SDS011;11376;50.932;4.442;2023-03-31T00:46:52;7.37;;;1.87;;
22417;SDS011;11376;50.932;4.442;2023-03-31T00:54:38;17.27;;;1.97;;
22417;SDS011;11376;50.932;4.442;2023-03-31T00:57:05;16.47;;;2.10;;
22417;SDS011;11376;50.932;4.442;2023-03-31T00:59:34;15.90;;;2.37;;
22417;SDS011;11376;50.932;4.442;2023-03-31T01:02:03;19.57;;;2.63;;
22417;SDS011;11376;50.932;4.442;2023-03-31T01:04:30;14.63;;;2.20;;
22417;SDS011;11376;50.932;4.442;2023-03-31T01:07:08;19.03;;;2.47;;
22417;SDS011;11376;50.932;4.442;2023-03-31T01:09:41;18.60;;;1.97;;
22417;SDS011;11376;50.932;4.442;2023-03-31T01:12:11;14.13;;;2.47;;
22417;SDS011;11376;50.932;4.442;2023-03-31T01:14:39;19.87;;;3.13;;
22417;SDS011;11376;50.932;4.442;2023-03-31T01:17:05;18.00;;;2.63;;
22417;SDS011;11376;50.932;4.442;2023-03-31T01:22:30;12.63;;;2.30;;
22417;SDS011;11376;50.932;4.442;2023-03-31T01:31:00;23.47;;;2.23;;
22417;SDS011;11376;50.932;4.442;2023-03-31T01:50:28;12.13;;;1.90;;
22417;SDS011;11376;50.932;4.442;2023-03-31T01:53:03;18.40;;;2.30;;
22417;SDS011;11376;50.932;4.442;2023-03-31T01:55:39;13.17;;;1.77;;
22417;SDS011;11376;50.932;4.442;2023-03-31T01:58:23;14.27;;;1.90;;
22417;SDS011;11376;50.932;4.442;2023-03-31T02:00:58;13.57;;;1.80;;
22417;SDS011;11376;50.932;4.442;2023-03-31T02:03:34;14.63;;;2.30;;
22417;SDS011;11376;50.932;4.442;2023-03-31T02:06:06;13.50;;;2.07;;
22417;SDS011;11376;50.932;4.442;2023-03-31T02:08:38;13.93;;;2.03;;
22417;SDS011;11376;50.932;4.442;2023-03-31T02:11:10;11.23;;;1.50;;
22417;SDS011;11376;50.932;4.442;2023-03-31T02:13:37;13.03;;;1.70;;
22417;SDS011;11376;50.932;4.442;2023-03-31T02:16:06;8.43;;;1.53;;
22417;SDS011;11376;50.932;4.442;2023-03-31T02:18:36;10.20;;;1.70;;
22417;SDS011;11376;50.932;4.442;2023-03-31T02:21:06;11.90;;;1.80;;
22417;SDS011;11376;50.932;4.442;2023-03-31T02:23:32;11.23;;;1.40;;
22417;SDS011;11376;50.932;4.442;2023-03-31T02:26:02;8.03;;;1.50;;
22417;SDS011;11376;50.932;4.442;2023-03-31T02:28:31;12.73;;;1.50;;
22417;SDS011;11376;50.932;4.442;2023-03-31T02:33:26;7.60;;;1.20;;
22417;SDS011;11376;50.932;4.442;2023-03-31T02:35:52;8.23;;;1.17;;
22417;SDS011;11376;50.932;4.442;2023-03-31T02:38:18;10.87;;;1.30;;
22417;SDS011;11376;50.932;4.442;2023-03-31T02:40:44;6.00;;;1.03;;
22417;SDS011;11376;50.932;4.442;2023-03-31T02:43:09;12.93;;;1.43;;
22417;SDS011;11376;50.932;4.442;2023-03-31T02:48:01;10.07;;;1.13;;
22417;SDS011;11376;50.932;4.442;2023-03-31T02:50:28;11.10;;;1.60;;
22417;SDS011;11376;50.932;4.442;2023-03-31T02:53:02;9.43;;;1.50;;
22417;SDS011;11376;50.932;4.442;2023-03-31T02:58:32;9.23;;;1.53;;
22417;SDS011;11376;50.932;4.442;2023-03-31T03:01:26;10.13;;;1.57;;
22417;SDS011;11376;50.932;4.442;2023-03-31T03:07:04;15.93;;;1.50;;
22417;SDS011;11376;50.932;4.442;2023-03-31T03:09:34;6.30;;;1.13;;
22417;SDS011;11376;50.932;4.442;2023-03-31T03:14:50;10.00;;;1.30;;
22417;SDS011;11376;50.932;4.442;2023-03-31T03:17:22;11.20;;;1.83;;
22417;SDS011;11376;50.932;4.442;2023-03-31T03:19:54;10.43;;;1.43;;
22417;SDS011;11376;50.932;4.442;2023-03-31T03:22:23;9.73;;;1.40;;
22417;SDS011;11376;50.932;4.442;2023-03-31T03:24:48;7.27;;;1.23;;
22417;SDS011;11376;50.932;4.442;2023-03-31T03:27:15;14.80;;;1.87;;
22417;SDS011;11376;50.932;4.442;2023-03-31T03:29:41;16.83;;;2.13;;
22417;SDS011;11376;50.932;4.442;2023-03-31T03:32:07;11.00;;;1.57;;
22417;SDS011;11376;50.932;4.442;2023-03-31T03:34:33;12.03;;;1.67;;
22417;SDS011;11376;50.932;4.442;2023-03-31T03:36:58;11.77;;;2.07;;
22417;SDS011;11376;50.932;4.442;2023-03-31T03:39:24;4.03;;;0.83;;
22417;SDS011;11376;50.932;4.442;2023-03-31T03:41:50;15.27;;;1.93;;
22417;SDS011;11376;50.932;4.442;2023-03-31T03:44:15;12.30;;;1.90;;
22417;SDS011;11376;50.932;4.442;2023-03-31T03:46:41;12.90;;;2.17;;
22417;SDS011;11376;50.932;4.442;2023-03-31T03:49:06;13.13;;;1.77;;
22417;SDS011;11376;50.932;4.442;2023-03-31T03:51:32;13.13;;;1.87;;
22417;SDS011;11376;50.932;4.442;2023-03-31T03:53:58;12.67;;;1.50;;
22417;SDS011;11376;50.932;4.442;2023-03-31T03:56:23;9.47;;;1.40;;
22417;SDS011;11376;50.932;4.442;2023-03-31T03:58:50;10.23;;;1.60;;
22417;SDS011;11376;50.932;4.442;2023-03-31T04:01:15;10.80;;;1.43;;
22417;SDS011;11376;50.932;4.442;2023-03-31T04:03:42;7.50;;;1.30;;
22417;SDS011;11376;50.932;4.442;2023-03-31T04:06:08;5.97;;;0.87;;
22417;SDS011;11376;50.932;4.442;2023-03-31T04:08:33;6.50;;;0.83;;
22417;SDS011;11376;50.932;4.442;2023-03-31T04:10:59;3.63;;;0.77;;
22417;SDS011;11376;50.932;4.442;2023-03-31T04:13:25;1.23;;;0.20;;
22417;SDS011;11376;50.932;4.442;2023-03-31T04:15:51;1.57;;;0.20;;
22417;SDS011;11376;50.932;4.442;2023-03-31T04:18:16;3.47;;;0.40;;
22417;SDS011;11376;50.932;4.442;2023-03-31T04:20:49;0.60;;;0.13;;
22417;SDS011;11376;50.932;4.442;2023-03-31T04:23:19;2.33;;;0.40;;
22417;SDS011;11376;50.932;4.442;2023-03-31T04:25:50;1.43;;;0.30;;
22417;SDS011;11376;50.932;4.442;2023-03-31T04:28:16;2.10;;;0.40;;
22417;SDS011;11376;50.932;4.442;2023-03-31T04:30:42;0.90;;;0.20;;
22417;SDS011;11376;50.932;4.442;2023-03-31T04:33:07;2.77;;;0.60;;
22417;SDS011;11376;50.932;4.442;2023-03-31T04:35:33;1.80;;;0.33;;
22417;SDS011;11376;50.932;4.442;2023-03-31T04:38:17;2.40;;;0.60;;
22417;SDS011;11376;50.932;4.442;2023-03-31T04:40:45;2.77;;;0.60;;
22417;SDS011;11376;50.932;4.442;2023-03-31T04:43:16;4.30;;;1.00;;
22417;SDS011;11376;50.932;4.442;2023-03-31T04:45:43;4.90;;;0.90;;
22417;SDS011;11376;50.932;4.442;2023-03-31T04:48:09;5.03;;;1.00;;
22417;SDS011;11376;50.932;4.442;2023-03-31T04:50:35;3.23;;;0.90;;
22417;SDS011;11376;50.932;4.442;2023-03-31T04:53:02;4.97;;;0.83;;
22417;SDS011;11376;50.932;4.442;2023-03-31T04:55:28;5.53;;;1.27;;
22417;SDS011;11376;50.932;4.442;2023-03-31T04:57:54;9.40;;;1.57;;
22417;SDS011;11376;50.932;4.442;2023-03-31T05:00:20;10.30;;;1.83;;
22417;SDS011;11376;50.932;4.442;2023-03-31T05:02:46;8.30;;;1.80;;
22417;SDS011;11376;50.932;4.442;2023-03-31T05:05:11;9.83;;;1.30;;
22417;SDS011;11376;50.932;4.442;2023-03-31T05:07:37;8.30;;;1.40;;
22417;SDS011;11376;50.932;4.442;2023-03-31T05:10:03;7.43;;;1.47;;
22417;SDS011;11376;50.932;4.442;2023-03-31T05:12:36;12.30;;;1.87;;
22417;SDS011;11376;50.932;4.442;2023-03-31T05:15:05;14.90;;;2.00;;
22417;SDS011;11376;50.932;4.442;2023-03-31T05:17:32;11.97;;;1.90;;
22417;SDS011;11376;50.932;4.442;2023-03-31T05:19:59;12.47;;;2.20;;
22417;SDS011;11376;50.932;4.442;2023-03-31T05:22:25;13.50;;;2.30;;
22417;SDS011;11376;50.932;4.442;2023-03-31T05:24:51;14.17;;;2.17;;
22417;SDS011;11376;50.932;4.442;2023-03-31T05:27:17;14.80;;;2.57;;
22417;SDS011;11376;50.932;4.442;2023-03-31T05:29:43;7.23;;;1.40;;
22417;SDS011;11376;50.932;4.442;2023-03-31T05:32:08;14.47;;;2.20;;
22417;SDS011;11376;50.932;4.442;2023-03-31T05:34:34;18.80;;;2.50;;
22417;SDS011;11376;50.932;4.442;2023-03-31T05:37:00;13.47;;;1.97;;
22417;SDS011;11376;50.932;4.442;2023-03-31T05:39:26;14.90;;;2.63;;
22417;SDS011;11376;50.932;4.442;2023-03-31T05:41:56;13.60;;;2.00;;
22417;SDS011;11376;50.932;4.442;2023-03-31T05:44:23;11.23;;;2.27;;
22417;SDS011;11376;50.932;4.442;2023-03-31T05:46:48;16.60;;;1.87;;
22417;SDS011;11376;50.932;4.442;2023-03-31T05:49:14;8.27;;;1.63;;
22417;SDS011;11376;50.932;4.442;2023-03-31T05:51:41;13.47;;;2.23;;
22417;SDS011;11376;50.932;4.442;2023-03-31T05:54:06;16.47;;;2.23;;
22417;SDS011;11376;50.932;4.442;2023-03-31T05:56:32;8.23;;;1.60;;
22417;SDS011;11376;50.932;4.442;2023-03-31T05:58:59;9.03;;;1.97;;
22417;SDS011;11376;50.932;4.442;2023-03-31T06:01:25;8.70;;;1.50;;
22417;SDS011;11376;50.932;4.442;2023-03-31T06:03:50;10.20;;;1.40;;
22417;SDS011;11376;50.932;4.442;2023-03-31T06:06:16;7.77;;;1.70;;
22417;SDS011;11376;50.932;4.442;2023-03-31T06:08:42;13.27;;;2.40;;
22417;SDS011;11376;50.932;4.442;2023-03-31T06:11:11;12.43;;;1.97;;
22417;SDS011;11376;50.932;4.442;2023-03-31T06:13:38;11.83;;;1.97;;
22417;SDS011;11376;50.932;4.442;2023-03-31T06:16:04;12.83;;;2.03;;
22417;SDS011;11376;50.932;4.442;2023-03-31T06:18:31;8.63;;;2.30;;
22417;SDS011;11376;50.932;4.442;2023-03-31T06:20:58;16.13;;;2.37;;
22417;SDS011;11376;50.932;4.442;2023-03-31T06:23:25;11.00;;;1.63;;
22417;SDS011;11376;50.932;4.442;2023-03-31T06:25:51;19.07;;;2.40;;
22417;SDS011;11376;50.932;4.442;2023-03-31T06:28:18;9.40;;;1.77;;
22417;SDS011;11376;50.932;4.442;2023-03-31T06:30:45;14.00;;;2.57;;
22417;SDS011;11376;50.932;4.442;2023-03-31T06:33:11;8.03;;;1.73;;
22417;SDS011;11376;50.932;4.442;2023-03-31T06:35:38;10.63;;;2.03;;
22417;SDS011;11376;50.932;4.442;2023-03-31T06:38:05;11.50;;;1.93;;
22417;SDS011;11376;50.932;4.442;2023-03-31T06:40:31;8.17;;;1.97;;
22417;SDS011;11376;50.932;4.442;2023-03-31T06:42:58;13.80;;;2.00;;
22417;SDS011;11376;50.932;4.442;2023-03-31T06:45:24;8.47;;;1.73;;
22417;SDS011;11376;50.932;4.442;2023-03-31T06:47:49;13.53;;;2.40;;
22417;SDS011;11376;50.932;4.442;2023-03-31T06:50:15;12.20;;;2.03;;
22417;SDS011;11376;50.932;4.442;2023-03-31T06:52:41;9.17;;;1.63;;
22417;SDS011;11376;50.932;4.442;2023-03-31T06:55:07;15.67;;;2.53;;
22417;SDS011;11376;50.932;4.442;2023-03-31T06:57:33;11.87;;;2.23;;
22417;SDS011;11376;50.932;4.442;2023-03-31T06:59:59;11.97;;;2.53;;
22417;SDS011;11376;50.932;4.442;2023-03-31T07:02:24;14.93;;;2.03;;
22417;SDS011;11376;50.932;4.442;2023-03-31T07:04:50;13.67;;;2.40;;
22417;SDS011;11376;50.932;4.442;2023-03-31T07:07:16;11.07;;;1.93;;
22417;SDS011;11376;50.932;4.442;2023-03-31T07:09:42;14.60;;;2.47;;
22417;SDS011;11376;50.932;4.442;2023-03-31T07:12:07;14.67;;;2.40;;
22417;SDS011;11376;50.932;4.442;2023-03-31T07:14:34;8.90;;;1.53;;
22417;SDS011;11376;50.932;4.442;2023-03-31T07:17:00;9.13;;;2.00;;
22417;SDS011;11376;50.932;4.442;2023-03-31T07:19:26;16.13;;;2.10;;
22417;SDS011;11376;50.932;4.442;2023-03-31T07:21:51;10.70;;;2.63;;
22417;SDS011;11376;50.932;4.442;2023-03-31T07:24:17;12.03;;;2.23;;
22417;SDS011;11376;50.932;4.442;2023-03-31T07:26:43;15.60;;;2.13;;
22417;SDS011;11376;50.932;4.442;2023-03-31T07:29:09;11.37;;;2.77;;
22417;SDS011;11376;50.932;4.442;2023-03-31T07:31:35;18.10;;;2.53;;
22417;SDS011;11376;50.932;4.442;2023-03-31T07:34:01;14.37;;;2.10;;
22417;SDS011;11376;50.932;4.442;2023-03-31T07:36:27;17.50;;;2.80;;
22417;SDS011;11376;50.932;4.442;2023-03-31T07:38:53;20.50;;;3.20;;
22417;SDS011;11376;50.932;4.442;2023-03-31T07:41:19;12.23;;;2.03;;
22417;SDS011;11376;50.932;4.442;2023-03-31T07:43:46;8.50;;;1.60;;
22417;SDS011;11376;50.932;4.442;2023-03-31T07:46:17;15.50;;;2.30;;
22417;SDS011;11376;50.932;4.442;2023-03-31T07:48:43;14.60;;;1.90;;
22417;SDS011;11376;50.932;4.442;2023-03-31T07:51:10;15.87;;;2.50;;
22417;SDS011;11376;50.932;4.442;2023-03-31T07:53:37;14.70;;;2.20;;
22417;SDS011;11376;50.932;4.442;2023-03-31T07:56:03;17.50;;;2.33;;
22417;SDS011;11376;50.932;4.442;2023-03-31T07:58:29;13.10;;;2.07;;
22417;SDS011;11376;50.932;4.442;2023-03-31T08:00:54;14.70;;;2.90;;
22417;SDS011;11376;50.932;4.442;2023-03-31T08:03:20;16.27;;;3.23;;
22417;SDS011;11376;50.932;4.442;2023-03-31T08:05:46;12.93;;;2.30;;
22417;SDS011;11376;50.932;4.442;2023-03-31T08:08:11;23.50;;;2.73;;
22417;SDS011;11376;50.932;4.442;2023-03-31T08:10:37;15.60;;;2.73;;
22417;SDS011;11376;50.932;4.442;2023-03-31T08:13:03;20.93;;;2.70;;
22417;SDS011;11376;50.932;4.442;2023-03-31T08:15:28;21.93;;;3.23;;
22417;SDS011;11376;50.932;4.442;2023-03-31T08:17:54;13.23;;;2.40;;
22417;SDS011;11376;50.932;4.442;2023-03-31T08:20:19;12.57;;;2.33;;
22417;SDS011;11376;50.932;4.442;2023-03-31T08:22:45;11.67;;;1.87;;
22417;SDS011;11376;50.932;4.442;2023-03-31T08:25:11;15.37;;;2.57;;
22417;SDS011;11376;50.932;4.442;2023-03-31T08:27:37;18.43;;;2.40;;
22417;SDS011;11376;50.932;4.442;2023-03-31T08:30:05;14.10;;;2.10;;
22417;SDS011;11376;50.932;4.442;2023-03-31T08:32:32;15.17;;;2.13;;
22417;SDS011;11376;50.932;4.442;2023-03-31T08:34:59;12.83;;;2.40;;
22417;SDS011;11376;50.932;4.442;2023-03-31T08:37:25;17.60;;;1.83;;
22417;SDS011;11376;50.932;4.442;2023-03-31T08:39:52;17.87;;;2.37;;
22417;SDS011;11376;50.932;4.442;2023-03-31T08:47:22;11.93;;;1.50;;
22417;SDS011;11376;50.932;4.442;2023-03-31T08:49:52;17.60;;;2.50;;
22417;SDS011;11376;50.932;4.442;2023-03-31T08:52:23;17.27;;;1.80;;
22417;SDS011;11376;50.932;4.442;2023-03-31T08:54:58;14.33;;;1.90;;
22417;SDS011;11376;50.932;4.442;2023-03-31T08:57:30;13.73;;;2.00;;
22417;SDS011;11376;50.932;4.442;2023-03-31T09:00:02;22.47;;;2.10;;
22417;SDS011;11376;50.932;4.442;2023-03-31T09:08:17;15.53;;;2.50;;
22417;SDS011;11376;50.932;4.442;2023-03-31T09:10:58;15.83;;;2.67;;
22417;SDS011;11376;50.932;4.442;2023-03-31T09:16:48;14.27;;;2.07;;
22417;SDS011;11376;50.932;4.442;2023-03-31T09:19:17;16.10;;;2.67;;
22417;SDS011;11376;50.932;4.442;2023-03-31T09:21:49;10.10;;;2.27;;
22417;SDS011;11376;50.932;4.442;2023-03-31T09:24:26;14.33;;;2.47;;
22417;SDS011;11376;50.932;4.442;2023-03-31T09:27:04;21.30;;;2.87;;
22417;SDS011;11376;50.932;4.442;2023-03-31T09:32:19;11.97;;;1.97;;
22417;SDS011;11376;50.932;4.442;2023-03-31T09:34:46;13.03;;;2.33;;
22417;SDS011;11376;50.932;4.442;2023-03-31T09:37:16;12.57;;;1.90;;
22417;SDS011;11376;50.932;4.442;2023-03-31T09:39:41;16.97;;;2.60;;
22417;SDS011;11376;50.932;4.442;2023-03-31T09:42:09;9.77;;;1.93;;
22417;SDS011;11376;50.932;4.442;2023-03-31T09:44:44;22.57;;;3.93;;
22417;SDS011;11376;50.932;4.442;2023-03-31T09:47:24;18.47;;;2.63;;
22417;SDS011;11376;50.932;4.442;2023-03-31T09:49:57;17.53;;;2.73;;
22417;SDS011;11376;50.932;4.442;2023-03-31T09:52:28;18.13;;;3.07;;
22417;SDS011;11376;50.932;4.442;2023-03-31T09:55:02;16.77;;;2.67;;
22417;SDS011;11376;50.932;4.442;2023-03-31T09:57:32;19.87;;;2.77;;
22417;SDS011;11376;50.932;4.442;2023-03-31T10:02:38;17.60;;;2.97;;
22417;SDS011;11376;50.932;4.442;2023-03-31T10:07:50;18.67;;;2.93;;
22417;SDS011;11376;50.932;4.442;2023-03-31T10:10:27;18.50;;;2.77;;
22417;SDS011;11376;50.932;4.442;2023-03-31T10:12:56;23.07;;;2.17;;
22417;SDS011;11376;50.932;4.442;2023-03-31T10:15:26;15.67;;;2.80;;
22417;SDS011;11376;50.932;4.442;2023-03-31T10:17:52;10.83;;;2.03;;
22417;SDS011;11376;50.932;4.442;2023-03-31T10:20:37;15.90;;;2.63;;
22417;SDS011;11376;50.932;4.442;2023-03-31T10:23:17;21.60;;;3.73;;
22417;SDS011;11376;50.932;4.442;2023-03-31T10:25:54;20.77;;;3.63;;
22417;SDS011;11376;50.932;4.442;2023-03-31T10:28:20;19.33;;;2.57;;
22417;SDS011;11376;50.932;4.442;2023-03-31T10:30:50;17.80;;;2.83;;
22417;SDS011;11376;50.932;4.442;2023-03-31T10:33:29;15.10;;;2.50;;
22417;SDS011;11376;50.932;4.442;2023-03-31T10:35:59;15.07;;;2.87;;
22417;SDS011;11376;50.932;4.442;2023-03-31T10:38:33;17.47;;;3.03;;
22417;SDS011;11376;50.932;4.442;2023-03-31T10:41:01;14.70;;;2.27;;
22417;SDS011;11376;50.932;4.442;2023-03-31T10:43:49;15.97;;;2.80;;
22417;SDS011;11376;50.932;4.442;2023-03-31T10:46:20;13.20;;;2.60;;
22417;SDS011;11376;50.932;4.442;2023-03-31T10:49:19;16.80;;;2.53;;
22417;SDS011;11376;50.932;4.442;2023-03-31T10:51:53;16.93;;;2.67;;
22417;SDS011;11376;50.932;4.442;2023-03-31T10:54:21;13.83;;;2.30;;
22417;SDS011;11376;50.932;4.442;2023-03-31T10:56:59;11.97;;;2.57;;
22417;SDS011;11376;50.932;4.442;2023-03-31T11:08:16;9.90;;;2.13;;
22417;SDS011;11376;50.932;4.442;2023-03-31T11:11:00;17.57;;;2.80;;
22417;SDS011;11376;50.932;4.442;2023-03-31T11:13:40;18.60;;;3.13;;
22417;SDS011;11376;50.932;4.442;2023-03-31T11:19:28;18.73;;;3.40;;
22417;SDS011;11376;50.932;4.442;2023-03-31T11:25:02;13.23;;;2.33;;
22417;SDS011;11376;50.932;4.442;2023-03-31T11:30:27;12.57;;;2.43;;
22417;SDS011;11376;50.932;4.442;2023-03-31T11:35:53;18.10;;;2.53;;
22417;SDS011;11376;50.932;4.442;2023-03-31T11:41:28;8.80;;;1.67;;
22417;SDS011;11376;50.932;4.442;2023-03-31T11:44:15;9.50;;;1.90;;
22417;SDS011;11376;50.932;4.442;2023-03-31T11:46:56;13.00;;;1.60;;
22417;SDS011;11376;50.932;4.442;2023-03-31T11:49:39;16.20;;;2.40;;
22417;SDS011;11376;50.932;4.442;2023-03-31T11:52:13;10.50;;;1.77;;
22417;SDS011;11376;50.932;4.442;2023-03-31T11:54:44;9.90;;;1.50;;
22417;SDS011;11376;50.932;4.442;2023-03-31T11:57:35;9.50;;;1.57;;
22417;SDS011;11376;50.932;4.442;2023-03-31T12:00:11;9.30;;;1.83;;
22417;SDS011;11376;50.932;4.442;2023-03-31T12:02:52;6.30;;;1.33;;
22417;SDS011;11376;50.932;4.442;2023-03-31T12:09:12;11.47;;;1.97;;
22417;SDS011;11376;50.932;4.442;2023-03-31T12:11:51;8.50;;;1.67;;
22417;SDS011;11376;50.932;4.442;2023-03-31T12:17:18;16.33;;;2.60;;
22417;SDS011;11376;50.932;4.442;2023-03-31T12:19:53;17.10;;;3.27;;
22417;SDS011;11376;50.932;4.442;2023-03-31T12:24:58;12.70;;;2.60;;
22417;SDS011;11376;50.932;4.442;2023-03-31T12:27:40;12.23;;;2.17;;
22417;SDS011;11376;50.932;4.442;2023-03-31T12:32:40;11.40;;;2.50;;
22417;SDS011;11376;50.932;4.442;2023-03-31T12:35:21;5.13;;;1.23;;
22417;SDS011;11376;50.932;4.442;2023-03-31T12:43:36;11.37;;;1.60;;
22417;SDS011;11376;50.932;4.442;2023-03-31T12:57:33;8.83;;;1.67;;
22417;SDS011;11376;50.932;4.442;2023-03-31T13:02:43;4.47;;;0.60;;
22417;SDS011;11376;50.932;4.442;2023-03-31T13:08:03;5.83;;;0.80;;
22417;SDS011;11376;50.932;4.442;2023-03-31T13:10:29;1.57;;;0.30;;
22417;SDS011;11376;50.932;4.442;2023-03-31T13:13:00;4.90;;;0.60;;
22417;SDS011;11376;50.932;4.442;2023-03-31T13:15:26;4.43;;;0.70;;
22417;SDS011;11376;50.932;4.442;2023-03-31T13:18:01;5.00;;;0.60;;
22417;SDS011;11376;50.932;4.442;2023-03-31T13:20:29;3.23;;;0.53;;
22417;SDS011;11376;50.932;4.442;2023-03-31T13:23:19;3.60;;;0.43;;
22417;SDS011;11376;50.932;4.442;2023-03-31T13:25:55;3.37;;;0.40;;
22417;SDS011;11376;50.932;4.442;2023-03-31T13:31:01;1.53;;;0.30;;
22417;SDS011;11376;50.932;4.442;2023-03-31T13:33:32;3.97;;;0.23;;
22417;SDS011;11376;50.932;4.442;2023-03-31T13:36:12;0.70;;;0.20;;
22417;SDS011;11376;50.932;4.442;2023-03-31T13:41:42;1.13;;;0.30;;
22417;SDS011;11376;50.932;4.442;2023-03-31T13:46:49;1.40;;;0.37;;
22417;SDS011;11376;50.932;4.442;2023-03-31T13:52:11;4.63;;;0.50;;
22417;SDS011;11376;50.932;4.442;2023-03-31T14:00:49;1.30;;;0.37;;
22417;SDS011;11376;50.932;4.442;2023-03-31T14:06:25;2.80;;;0.23;;
22417;SDS011;11376;50.932;4.442;2023-03-31T14:09:00;3.57;;;0.30;;
22417;SDS011;11376;50.932;4.442;2023-03-31T14:11:30;2.40;;;0.30;;
22417;SDS011;11376;50.932;4.442;2023-03-31T14:14:00;1.13;;;0.20;;
22417;SDS011;11376;50.932;4.442;2023-03-31T14:25:01;4.07;;;0.50;;
22417;SDS011;11376;50.932;4.442;2023-03-31T14:30:49;0.87;;;0.23;;
22417;SDS011;11376;50.932;4.442;2023-03-31T14:33:43;1.03;;;0.20;;
22417;SDS011;11376;50.932;4.442;2023-03-31T14:39:11;0.63;;;0.10;;
22417;SDS011;11376;50.932;4.442;2023-03-31T14:41:43;2.60;;;0.57;;
22417;SDS011;11376;50.932;4.442;2023-03-31T14:44:10;1.80;;;0.20;;
22417;SDS011;11376;50.932;4.442;2023-03-31T14:46:38;2.83;;;0.40;;
22417;SDS011;11376;50.932;4.442;2023-03-31T14:49:17;1.90;;;0.40;;
22417;SDS011;11376;50.932;4.442;2023-03-31T14:51:59;1.30;;;0.40;;
22417;SDS011;11376;50.932;4.442;2023-03-31T14:54:27;1.20;;;0.30;;
22417;SDS011;11376;50.932;4.442;2023-03-31T14:57:01;1.03;;;0.30;;
22417;SDS011;11376;50.932;4.442;2023-03-31T14:59:29;0.30;;;0.20;;
22417;SDS011;11376;50.932;4.442;2023-03-31T15:01:57;1.60;;;0.40;;
22417;SDS011;11376;50.932;4.442;2023-03-31T15:04:25;1.07;;;0.20;;
22417;SDS011;11376;50.932;4.442;2023-03-31T15:06:53;0.83;;;0.20;;
22417;SDS011;11376;50.932;4.442;2023-03-31T15:09:22;0.73;;;0.20;;
22417;SDS011;11376;50.932;4.442;2023-03-31T15:11:57;2.10;;;0.30;;
22417;SDS011;11376;50.932;4.442;2023-03-31T15:14:30;1.50;;;0.30;;
22417;SDS011;11376;50.932;4.442;2023-03-31T15:16:58;2.30;;;0.43;;
22417;SDS011;11376;50.932;4.442;2023-03-31T15:19:26;1.90;;;0.20;;
22417;SDS011;11376;50.932;4.442;2023-03-31T15:21:57;2.07;;;0.40;;
22417;SDS011;11376;50.932;4.442;2023-03-31T15:24:33;2.67;;;0.40;;
22417;SDS011;11376;50.932;4.442;2023-03-31T15:31:56;2.67;;;0.50;;
22417;SDS011;11376;50.932;4.442;2023-03-31T15:34:26;1.27;;;0.40;;
22417;SDS011;11376;50.932;4.442;2023-03-31T15:36:57;2.33;;;0.50;;
22417;SDS011;11376;50.932;4.442;2023-03-31T15:39:23;1.97;;;0.53;;
22417;SDS011;11376;50.932;4.442;2023-03-31T15:41:52;3.23;;;0.50;;
22417;SDS011;11376;50.932;4.442;2023-03-31T15:47:05;3.07;;;0.60;;
22417;SDS011;11376;50.932;4.442;2023-03-31T15:52:34;2.40;;;0.73;;
22417;SDS011;11376;50.932;4.442;2023-03-31T15:55:22;1.93;;;0.50;;
22417;SDS011;11376;50.932;4.442;2023-03-31T15:57:53;3.17;;;0.50;;
22417;SDS011;11376;50.932;4.442;2023-03-31T16:02:58;4.00;;;0.40;;
22417;SDS011;11376;50.932;4.442;2023-03-31T16:05:39;4.43;;;0.60;;
22417;SDS011;11376;50.932;4.442;2023-03-31T16:08:24;5.67;;;0.70;;
22417;SDS011;11376;50.932;4.442;2023-03-31T16:11:06;6.37;;;0.90;;
22417;SDS011;11376;50.932;4.442;2023-03-31T16:13:37;4.53;;;0.90;;
22417;SDS011;11376;50.932;4.442;2023-03-31T16:16:14;5.63;;;0.80;;
22417;SDS011;11376;50.932;4.442;2023-03-31T16:19:02;6.40;;;0.83;;
22417;SDS011;11376;50.932;4.442;2023-03-31T16:21:38;5.03;;;1.03;;
22417;SDS011;11376;50.932;4.442;2023-03-31T16:24:08;4.70;;;0.77;;
22417;SDS011;11376;50.932;4.442;2023-03-31T16:26:35;5.63;;;1.10;;
22417;SDS011;11376;50.932;4.442;2023-03-31T16:29:01;5.47;;;0.90;;
22417;SDS011;11376;50.932;4.442;2023-03-31T16:31:38;6.70;;;1.07;;
22417;SDS011;11376;50.932;4.442;2023-03-31T16:34:05;9.13;;;1.33;;
22417;SDS011;11376;50.932;4.442;2023-03-31T16:36:32;4.93;;;1.40;;
22417;SDS011;11376;50.932;4.442;2023-03-31T16:38:58;7.73;;;1.10;;
22417;SDS011;11376;50.932;4.442;2023-03-31T16:41:24;4.20;;;1.00;;
22417;SDS011;11376;50.932;4.442;2023-03-31T16:43:52;3.73;;;0.90;;
22417;SDS011;11376;50.932;4.442;2023-03-31T16:46:19;6.93;;;1.70;;
22417;SDS011;11376;50.932;4.442;2023-03-31T16:48:45;6.83;;;0.90;;
22417;SDS011;11376;50.932;4.442;2023-03-31T16:51:11;5.53;;;1.33;;
22417;SDS011;11376;50.932;4.442;2023-03-31T16:53:37;9.27;;;1.50;;
22417;SDS011;11376;50.932;4.442;2023-03-31T16:56:03;4.97;;;0.87;;
22417;SDS011;11376;50.932;4.442;2023-03-31T16:58:34;7.17;;;1.37;;
22417;SDS011;11376;50.932;4.442;2023-03-31T17:01:00;6.87;;;1.20;;
22417;SDS011;11376;50.932;4.442;2023-03-31T17:03:26;6.23;;;0.80;;
22417;SDS011;11376;50.932;4.442;2023-03-31T17:05:53;10.87;;;1.53;;
22417;SDS011;11376;50.932;4.442;2023-03-31T17:08:21;4.83;;;0.80;;
22417;SDS011;11376;50.932;4.442;2023-03-31T17:13:18;3.83;;;0.77;;
22417;SDS011;11376;50.932;4.442;2023-03-31T17:15:44;11.03;;;1.23;;
22417;SDS011;11376;50.932;4.442;2023-03-31T17:18:10;8.53;;;1.20;;
22417;SDS011;11376;50.932;4.442;2023-03-31T17:20:36;6.77;;;1.13;;
22417;SDS011;11376;50.932;4.442;2023-03-31T17:23:01;7.03;;;1.23;;
22417;SDS011;11376;50.932;4.442;2023-03-31T17:25:27;7.83;;;1.23;;
22417;SDS011;11376;50.932;4.442;2023-03-31T17:27:52;22.13;;;1.60;;
22417;SDS011;11376;50.932;4.442;2023-03-31T17:30:20;5.53;;;1.00;;
22417;SDS011;11376;50.932;4.442;2023-03-31T17:32:47;6.60;;;1.00;;
22417;SDS011;11376;50.932;4.442;2023-03-31T17:35:12;6.53;;;1.30;;
22417;SDS011;11376;50.932;4.442;2023-03-31T17:37:44;7.77;;;1.43;;
22417;SDS011;11376;50.932;4.442;2023-03-31T17:40:10;7.27;;;0.93;;
22417;SDS011;11376;50.932;4.442;2023-03-31T17:42:36;5.13;;;0.70;;
22417;SDS011;11376;50.932;4.442;2023-03-31T17:45:03;5.70;;;1.20;;
22417;SDS011;11376;50.932;4.442;2023-03-31T17:47:29;4.00;;;0.73;;
22417;SDS011;11376;50.932;4.442;2023-03-31T17:49:56;6.87;;;1.30;;